Roulo, Michigan
Current Conditions -  °F | °C
As of 1:53 AM on Friday 31 Oct 2014 (Local Time) from KYIP Reporting Station
Overcast Overcast  
Wind Chill: 44°   Ceiling: 5500
Heat Index: 48°   Visibility: 10mi
Dew Point: 37°   Wind: 8mph
Humidity: 66%   Direction: 220°SW
Pressure: 29.99"   Gusts: NA
Location:  42.1781°N, 83.4854°W
Report Text: KYIP 310553Z AUTO 22007KT 10SM OVC055 09/03 A2999 RMK AO2 SLP154 T00890028 10100 20089 58015 TSNO
Loading
Personal Weather Stations






























Interactive Weather Map
Tropical Storm Tracking
New forecast layout! Learn more

10-Day Weather Forecast

Advertisements
Track Severe Weather on mobile